createdAt,value
2022-12-18T00:01:34.983Z,19.80
2022-12-18T00:04:03.952Z,22.10
2022-12-18T00:06:33.601Z,22.63
2022-12-18T00:09:02.465Z,22.23
2022-12-18T00:11:31.716Z,21.60
2022-12-18T00:14:00.785Z,21.73
2022-12-18T00:16:31.018Z,21.80
2022-12-18T00:19:01.933Z,20.87
2022-12-18T00:21:30.772Z,21.57
2022-12-18T00:23:59.209Z,23.37
2022-12-18T00:26:28.156Z,21.60
2022-12-18T00:28:57.610Z,22.57
2022-12-18T00:31:27.081Z,22.50
2022-12-18T00:33:56.500Z,22.57
2022-12-18T00:36:27.122Z,22.70
2022-12-18T00:38:56.337Z,22.00
2022-12-18T00:41:42.922Z,22.80
2022-12-18T00:44:12.576Z,22.40
2022-12-18T00:46:40.993Z,22.87
2022-12-18T00:49:09.552Z,22.63
2022-12-18T00:51:39.240Z,22.50
2022-12-18T00:54:07.524Z,22.13
2022-12-18T00:56:48.019Z,22.20
2022-12-18T00:59:17.295Z,22.63
2022-12-18T01:01:45.801Z,22.60
2022-12-18T01:04:14.295Z,22.40
2022-12-18T01:06:44.774Z,23.17
2022-12-18T01:09:13.114Z,21.63
2022-12-18T01:11:41.341Z,21.43
2022-12-18T01:14:09.628Z,22.63
2022-12-18T01:16:37.923Z,23.10
2022-12-18T01:19:06.225Z,22.53
2022-12-18T01:21:34.867Z,22.13
2022-12-18T01:24:04.549Z,21.70
2022-12-18T01:26:32.941Z,21.50
2022-12-18T01:29:01.294Z,22.27
2022-12-18T01:31:30.495Z,22.90
2022-12-18T01:33:59.366Z,22.10
2022-12-18T01:36:29.592Z,21.77
2022-12-18T01:38:58.327Z,22.63
2022-12-18T01:41:49.624Z,22.50
2022-12-18T01:44:41.720Z,22.17
2022-12-18T01:47:21.414Z,22.83
2022-12-18T01:49:49.758Z,23.60
2022-12-18T01:52:18.499Z,23.73
2022-12-18T01:54:47.181Z,23.90
2022-12-18T01:57:16.954Z,25.00
2022-12-18T01:59:45.882Z,22.90
2022-12-18T02:02:14.551Z,24.23
2022-12-18T02:04:49.213Z,25.17
2022-12-18T02:07:21.608Z,23.97
2022-12-18T02:09:51.439Z,24.60
2022-12-18T02:12:22.344Z,23.37
2022-12-18T02:14:53.723Z,23.10
2022-12-18T02:17:23.030Z,23.93
2022-12-18T02:19:57.707Z,23.57
2022-12-18T02:22:32.778Z,24.73
2022-12-18T02:25:05.555Z,24.87
2022-12-18T02:27:36.532Z,24.40
2022-12-18T02:30:06.513Z,24.30
2022-12-18T02:32:37.493Z,25.03
2022-12-18T02:35:07.555Z,23.57
2022-12-18T02:37:37.135Z,23.43
2022-12-18T02:40:06.502Z,25.10
2022-12-18T02:42:36.123Z,23.60
2022-12-18T02:45:04.521Z,23.33
2022-12-18T02:47:34.032Z,25.83
2022-12-18T02:50:05.371Z,24.73
2022-12-18T02:52:38.097Z,23.80
2022-12-18T02:55:15.197Z,23.27
2022-12-18T02:57:47.297Z,23.37
2022-12-18T03:00:17.371Z,24.13
2022-12-18T03:02:48.599Z,22.97
2022-12-18T03:05:19.661Z,24.70
2022-12-18T03:07:50.750Z,22.83
2022-12-18T03:10:21.015Z,23.33
2022-12-18T03:12:54.235Z,24.53
2022-12-18T03:15:24.741Z,23.83
2022-12-18T03:17:55.491Z,23.40
2022-12-18T03:20:24.774Z,22.87
2022-12-18T03:22:55.807Z,23.40
2022-12-18T03:25:24.518Z,23.00
2022-12-18T03:27:57.432Z,22.53
2022-12-18T03:30:25.707Z,24.30
2022-12-18T03:33:00.222Z,22.40
2022-12-18T03:35:31.318Z,22.23
2022-12-18T03:37:59.539Z,22.03
2022-12-18T03:40:32.736Z,23.40
2022-12-18T03:43:05.570Z,24.70
2022-12-18T03:45:37.343Z,23.57
2022-12-18T03:48:07.774Z,22.83
2022-12-18T03:50:40.629Z,22.27
2022-12-18T03:53:16.716Z,22.73
2022-12-18T03:55:46.300Z,22.60
2022-12-18T03:58:19.180Z,22.77
2022-12-18T04:00:47.901Z,22.97
2022-12-18T04:03:16.504Z,22.53
2022-12-18T04:05:45.972Z,23.23
2022-12-18T04:08:14.829Z,22.50
2022-12-18T04:10:43.136Z,23.07
2022-12-18T04:13:12.160Z,21.87
2022-12-18T04:15:42.364Z,22.93
2022-12-18T04:18:10.726Z,22.30
2022-12-18T04:20:38.921Z,21.70
2022-12-18T04:23:07.288Z,22.03
2022-12-18T04:25:35.524Z,21.30
2022-12-18T04:28:03.724Z,20.93
2022-12-18T04:30:31.946Z,21.20
2022-12-18T04:33:01.576Z,21.87
2022-12-18T04:35:29.794Z,20.80
2022-12-18T04:37:58.159Z,21.67
2022-12-18T04:40:26.429Z,21.40
2022-12-18T04:42:54.666Z,20.80
2022-12-18T04:45:22.914Z,20.97
2022-12-18T04:47:51.174Z,21.77
2022-12-18T04:50:20.888Z,21.70
2022-12-18T04:52:49.131Z,21.43
2022-12-18T04:55:17.487Z,21.10
2022-12-18T04:57:45.760Z,20.63
2022-12-18T05:00:14.661Z,19.90
2022-12-18T05:02:43.092Z,20.07
2022-12-18T05:05:11.434Z,21.47
2022-12-18T05:07:41.052Z,20.10
2022-12-18T05:10:14.518Z,20.67
2022-12-18T05:12:56.650Z,20.37
2022-12-18T05:15:24.852Z,20.00
2022-12-18T05:17:53.107Z,19.30
2022-12-18T05:20:21.461Z,19.17
2022-12-18T05:22:51.178Z,19.33
2022-12-18T05:25:19.706Z,19.33
2022-12-18T05:27:49.132Z,18.67
2022-12-18T05:30:18.032Z,19.47
2022-12-18T05:32:46.217Z,17.87
2022-12-18T05:35:14.451Z,18.57
2022-12-18T05:37:43.411Z,18.30
2022-12-18T05:40:14.006Z,18.80
2022-12-18T05:42:42.442Z,17.97
2022-12-18T05:45:11.139Z,18.77
2022-12-18T05:47:39.331Z,19.40
2022-12-18T05:50:08.486Z,18.70
2022-12-18T05:52:36.698Z,19.77
2022-12-18T05:55:05.322Z,18.50
2022-12-18T05:57:34.860Z,18.37
2022-12-18T06:00:03.136Z,18.97
2022-12-18T06:02:31.524Z,18.90
2022-12-18T06:04:59.808Z,18.53
2022-12-18T06:07:28.105Z,19.00
2022-12-18T06:09:56.369Z,17.63
2022-12-18T06:12:24.584Z,20.93
2022-12-18T06:14:54.180Z,19.70
2022-12-18T06:17:22.373Z,18.43
2022-12-18T06:19:50.582Z,17.83
2022-12-18T06:22:18.872Z,16.73
2022-12-18T06:24:47.128Z,15.90
2022-12-18T06:27:15.674Z,15.93
2022-12-18T06:29:44.327Z,15.87
2022-12-18T06:32:13.985Z,15.53
2022-12-18T06:34:42.215Z,16.33
2022-12-18T06:37:10.428Z,16.87
2022-12-18T06:39:38.652Z,16.53
2022-12-18T06:42:07.087Z,16.40
2022-12-18T06:44:35.385Z,15.97
2022-12-18T06:47:03.630Z,15.50
2022-12-18T06:49:33.234Z,16.33
2022-12-18T06:52:01.476Z,15.37
2022-12-18T06:54:29.724Z,15.70
2022-12-18T06:56:57.886Z,16.43
2022-12-18T06:59:26.204Z,16.67
2022-12-18T07:01:55.501Z,16.13
2022-12-18T07:04:24.415Z,18.30
2022-12-18T07:06:53.975Z,17.93
2022-12-18T07:09:22.483Z,15.77
2022-12-18T07:11:50.684Z,16.37
2022-12-18T07:14:18.910Z,16.27
2022-12-18T07:16:47.196Z,17.13
2022-12-18T07:19:15.534Z,21.13
2022-12-18T07:21:43.771Z,19.03
2022-12-18T07:24:13.521Z,18.43
2022-12-18T07:26:41.835Z,17.27
2022-12-18T07:29:10.106Z,17.80
2022-12-18T07:31:38.548Z,18.97
2022-12-18T07:34:06.781Z,18.47
2022-12-18T07:36:35.028Z,16.27
2022-12-18T07:39:03.537Z,15.40
2022-12-18T07:41:33.839Z,16.60
2022-12-18T07:44:02.089Z,17.27
2022-12-18T07:46:30.625Z,15.53
2022-12-18T07:48:59.072Z,14.97
2022-12-18T07:51:27.384Z,13.87
2022-12-18T07:53:56.148Z,14.27
2022-12-18T07:56:27.575Z,14.87
2022-12-18T07:58:59.094Z,14.77
2022-12-18T08:01:27.570Z,15.47
2022-12-18T08:03:56.042Z,15.57
2022-12-18T08:06:24.889Z,15.07
2022-12-18T08:08:53.777Z,13.17
2022-12-18T08:11:22.069Z,13.30
2022-12-18T08:13:50.437Z,14.30
2022-12-18T08:16:20.723Z,13.00
2022-12-18T08:18:49.493Z,13.67
2022-12-18T08:21:19.260Z,13.23
2022-12-18T08:23:50.305Z,12.37
2022-12-18T08:26:19.774Z,12.13
2022-12-18T08:28:49.255Z,12.43
2022-12-18T08:31:20.261Z,15.70
2022-12-18T08:33:51.477Z,22.70
2022-12-18T08:36:20.082Z,17.87
2022-12-18T08:38:48.655Z,14.67
2022-12-18T08:41:17.765Z,12.50
2022-12-18T08:44:03.723Z,12.00
2022-12-18T08:46:36.678Z,12.47
2022-12-18T08:49:05.666Z,11.20
2022-12-18T08:51:34.055Z,10.73
2022-12-18T08:54:02.816Z,11.70
2022-12-18T08:56:32.354Z,14.23
2022-12-18T08:59:00.638Z,12.37
2022-12-18T09:01:29.615Z,10.33
2022-12-18T09:03:59.259Z,10.10
2022-12-18T09:06:27.600Z,10.43
2022-12-18T09:08:55.894Z,9.43
2022-12-18T09:11:24.908Z,10.13
2022-12-18T09:13:53.254Z,10.13
2022-12-18T09:16:23.121Z,9.40
2022-12-18T09:18:54.887Z,9.83
2022-12-18T09:21:24.481Z,9.43
2022-12-18T09:23:52.732Z,9.40
2022-12-18T09:26:21.070Z,9.13
2022-12-18T09:28:49.304Z,9.97
2022-12-18T09:31:18.392Z,8.07
2022-12-18T09:33:46.967Z,8.53
2022-12-18T09:36:16.302Z,11.00
2022-12-18T09:38:46.272Z,9.20
2022-12-18T09:41:22.197Z,11.83
2022-12-18T09:43:52.688Z,11.57
2022-12-18T09:46:27.005Z,9.47
2022-12-18T09:48:57.286Z,9.80
2022-12-18T09:51:26.770Z,9.73
2022-12-18T09:53:58.400Z,7.63
2022-12-18T09:56:29.319Z,7.53
2022-12-18T09:59:00.099Z,7.60
2022-12-18T10:01:36.386Z,8.03
2022-12-18T10:04:11.540Z,7.63
2022-12-18T10:06:44.952Z,8.13
2022-12-18T10:09:20.884Z,8.00
2022-12-18T10:11:52.233Z,7.63
2022-12-18T10:14:23.278Z,7.50
2022-12-18T10:16:58.714Z,7.43
2022-12-18T10:19:37.672Z,7.67
2022-12-18T10:22:11.646Z,8.23
2022-12-18T10:24:42.732Z,7.27
2022-12-18T10:27:15.480Z,7.43
2022-12-18T10:29:44.649Z,7.97
2022-12-18T10:32:17.145Z,10.30
2022-12-18T10:34:47.991Z,10.93
2022-12-18T10:37:18.866Z,13.33
2022-12-18T10:39:48.475Z,11.70
2022-12-18T10:42:19.642Z,15.80
2022-12-18T10:44:47.903Z,14.40
2022-12-18T10:47:17.514Z,12.90
2022-12-18T10:49:50.285Z,16.57
2022-12-18T10:52:20.041Z,12.07
2022-12-18T10:54:51.961Z,8.57
2022-12-18T10:57:31.766Z,12.70
2022-12-18T11:00:00.700Z,9.37
2022-12-18T11:02:29.945Z,8.97
2022-12-18T11:04:58.367Z,8.40
2022-12-18T11:07:26.623Z,8.23
2022-12-18T11:10:07.883Z,8.63
2022-12-18T11:12:36.131Z,8.20
2022-12-18T11:15:04.483Z,8.03
2022-12-18T11:17:34.557Z,10.40
2022-12-18T11:20:03.833Z,9.60
2022-12-18T11:22:33.022Z,9.97
2022-12-18T11:27:55.864Z,9.17
2022-12-18T11:30:25.600Z,8.17
2022-12-18T11:32:55.975Z,8.57
2022-12-18T11:35:27.833Z,8.20
2022-12-18T11:37:58.641Z,7.60
2022-12-18T11:40:34.367Z,7.80
2022-12-18T11:43:13.099Z,9.63
2022-12-18T11:45:44.032Z,7.60
2022-12-18T11:48:17.411Z,7.07
2022-12-18T11:50:49.158Z,7.73
2022-12-18T11:53:17.617Z,8.77
2022-12-18T11:55:51.658Z,8.60
2022-12-18T11:58:31.330Z,7.77
2022-12-18T12:01:06.082Z,8.23
2022-12-18T12:03:45.551Z,8.90
2022-12-18T12:06:18.802Z,8.17
2022-12-18T12:08:59.397Z,8.97
2022-12-18T12:11:32.432Z,9.93
2022-12-18T12:14:06.903Z,9.87
2022-12-18T12:16:38.898Z,9.07
2022-12-18T12:19:16.683Z,9.00
2022-12-18T12:21:47.153Z,8.57
2022-12-18T12:24:30.294Z,8.80
2022-12-18T12:27:03.955Z,8.47
2022-12-18T12:29:40.067Z,9.30
2022-12-18T12:32:14.369Z,8.30
2022-12-18T12:34:48.997Z,8.80
2022-12-18T12:37:23.560Z,8.37
2022-12-18T12:39:53.504Z,8.77
2022-12-18T12:42:43.182Z,8.67
2022-12-18T12:45:17.817Z,11.30
2022-12-18T12:47:47.377Z,9.87
2022-12-18T12:50:18.402Z,11.70
2022-12-18T12:52:48.743Z,10.10
2022-12-18T12:55:19.149Z,9.17
2022-12-18T12:57:56.241Z,8.97
2022-12-18T13:00:26.669Z,9.57
2022-12-18T13:02:57.601Z,9.43
2022-12-18T13:05:29.764Z,9.37
2022-12-18T13:07:59.991Z,11.30
2022-12-18T13:10:33.554Z,8.87
2022-12-18T13:13:03.548Z,10.13
2022-12-18T13:15:38.248Z,9.67
2022-12-18T13:18:18.841Z,9.37
2022-12-18T13:20:53.087Z,8.63
2022-12-18T13:23:39.748Z,8.33
2022-12-18T13:26:32.848Z,8.53
2022-12-18T13:29:05.073Z,7.77
2022-12-18T13:31:51.714Z,8.37
2022-12-18T13:34:29.482Z,8.60
2022-12-18T13:37:00.534Z,8.60
2022-12-18T13:39:36.788Z,9.07
2022-12-18T13:42:38.341Z,8.47
2022-12-18T13:45:32.031Z,8.30
2022-12-18T13:48:00.267Z,9.40
2022-12-18T13:50:35.468Z,7.90
2022-12-18T13:53:05.979Z,8.83
2022-12-18T13:55:34.829Z,8.53
2022-12-18T13:58:06.506Z,8.83
2022-12-18T14:00:37.214Z,9.07
2022-12-18T14:03:22.469Z,9.27
2022-12-18T14:05:55.432Z,7.93
2022-12-18T14:08:23.887Z,8.63
2022-12-18T14:10:54.041Z,8.73
2022-12-18T14:13:26.024Z,8.67
2022-12-18T14:15:56.668Z,9.17
2022-12-18T14:18:26.894Z,7.87
2022-12-18T14:20:55.718Z,8.23
2022-12-18T14:23:31.951Z,7.50
2022-12-18T14:26:05.328Z,7.87
2022-12-18T14:28:34.397Z,7.63
2022-12-18T14:31:04.002Z,7.37
2022-12-18T14:33:32.498Z,6.87
2022-12-18T14:36:01.538Z,7.27
2022-12-18T14:38:31.214Z,8.33
2022-12-18T14:41:00.082Z,7.87
2022-12-18T14:43:28.956Z,7.50
2022-12-18T14:45:57.580Z,7.80
2022-12-18T14:48:35.956Z,6.30
2022-12-18T14:51:05.177Z,6.70
2022-12-18T14:53:39.057Z,6.93
2022-12-18T14:56:15.879Z,7.23
2022-12-18T14:58:47.394Z,6.90
2022-12-18T15:01:20.865Z,7.50
2022-12-18T15:03:50.650Z,7.23
2022-12-18T15:06:19.501Z,7.00
2022-12-18T15:08:47.732Z,6.23
2022-12-18T15:11:28.869Z,7.80
2022-12-18T15:14:00.147Z,6.63
2022-12-18T15:16:28.425Z,7.03
2022-12-18T15:18:58.004Z,7.20
2022-12-18T15:21:26.302Z,8.37
2022-12-18T15:23:55.279Z,6.73
2022-12-18T15:26:24.026Z,7.80
2022-12-18T15:28:53.474Z,7.17
2022-12-18T15:31:26.612Z,7.67
2022-12-18T15:34:13.210Z,7.80
2022-12-18T15:36:41.522Z,7.20
2022-12-18T15:39:12.944Z,7.27
2022-12-18T15:41:41.279Z,10.07
2022-12-18T15:44:23.016Z,6.80
2022-12-18T15:46:51.300Z,6.77
2022-12-18T15:49:20.846Z,6.93
2022-12-18T15:51:52.050Z,6.20
2022-12-18T15:54:40.217Z,5.97
2022-12-18T15:57:25.252Z,8.23
2022-12-18T15:59:54.622Z,8.00
2022-12-18T16:02:24.660Z,6.97
2022-12-18T16:04:55.404Z,7.63
2022-12-18T16:07:26.060Z,6.53
2022-12-18T16:09:55.593Z,7.00
2022-12-18T16:12:26.982Z,8.13
2022-12-18T16:14:55.207Z,6.13
2022-12-18T16:17:23.412Z,5.93
2022-12-18T16:19:51.628Z,6.83
2022-12-18T16:22:23.323Z,5.90
2022-12-18T16:24:51.920Z,6.63
2022-12-18T16:27:20.744Z,5.60
2022-12-18T16:29:49.051Z,6.07
2022-12-18T16:32:18.463Z,6.93
2022-12-18T16:34:47.033Z,5.57
2022-12-18T16:37:16.298Z,6.90
2022-12-18T16:39:45.937Z,6.43
2022-12-18T16:42:17.174Z,8.67
2022-12-18T16:44:45.771Z,6.30
2022-12-18T16:47:14.967Z,6.27
2022-12-18T16:49:45.322Z,6.40
2022-12-18T16:52:13.565Z,8.67
2022-12-18T16:54:41.770Z,11.27
2022-12-18T16:57:11.826Z,6.53
2022-12-18T16:59:40.019Z,6.13
2022-12-18T17:02:08.648Z,5.67
2022-12-18T17:04:36.912Z,6.47
2022-12-18T17:07:05.114Z,6.40
2022-12-18T17:09:33.303Z,6.37
2022-12-18T17:12:04.396Z,8.23
2022-12-18T17:14:34.604Z,6.87
2022-12-18T17:19:51.157Z,6.27
2022-12-18T17:22:19.402Z,6.97
2022-12-18T17:25:03.531Z,7.10
2022-12-18T17:27:31.846Z,6.70
2022-12-18T17:30:01.377Z,6.57
2022-12-18T17:32:29.555Z,7.10
2022-12-18T17:35:00.473Z,9.80
2022-12-18T17:37:30.915Z,8.23
2022-12-18T17:39:59.127Z,7.07
2022-12-18T17:42:27.308Z,6.80
2022-12-18T17:44:55.491Z,7.47
2022-12-18T17:47:25.021Z,7.00
2022-12-18T17:49:53.305Z,8.03
2022-12-18T17:52:23.016Z,6.70
2022-12-18T17:54:51.221Z,6.80
2022-12-18T17:57:19.466Z,6.00
2022-12-18T17:59:47.686Z,6.33
2022-12-18T18:02:16.063Z,6.77
2022-12-18T18:04:45.778Z,6.87
2022-12-18T18:07:13.967Z,6.17
2022-12-18T18:09:42.333Z,7.37
2022-12-18T18:12:28.348Z,8.60
2022-12-18T18:15:01.581Z,7.60
2022-12-18T18:17:29.868Z,7.40
2022-12-18T18:19:59.439Z,7.10
2022-12-18T18:22:27.681Z,7.27
2022-12-18T18:24:56.354Z,6.33
2022-12-18T18:27:24.552Z,6.83
2022-12-18T18:29:53.129Z,6.87
2022-12-18T18:32:21.306Z,6.37
2022-12-18T18:34:49.585Z,6.47
2022-12-18T18:37:19.106Z,6.77
2022-12-18T18:39:47.357Z,7.37
2022-12-18T18:42:15.537Z,7.30
2022-12-18T18:44:48.712Z,6.80
2022-12-18T18:47:17.291Z,8.70
2022-12-18T18:49:45.478Z,8.10
2022-12-18T18:52:13.683Z,7.07
2022-12-18T18:55:03.617Z,7.73
2022-12-18T18:57:31.440Z,8.13
2022-12-18T18:59:59.719Z,7.80
2022-12-18T19:02:28.038Z,8.27
2022-12-18T19:04:57.324Z,8.10
2022-12-18T19:07:30.195Z,9.10
2022-12-18T19:10:04.786Z,8.80
2022-12-18T19:12:51.699Z,8.67
2022-12-18T19:15:19.976Z,9.73
2022-12-18T19:17:48.596Z,12.13
2022-12-18T19:20:17.158Z,12.10
2022-12-18T19:22:49.046Z,10.83
2022-12-18T19:25:31.021Z,10.47
2022-12-18T19:28:19.274Z,12.20
2022-12-18T19:30:50.516Z,11.13
2022-12-18T19:33:41.603Z,10.17
2022-12-18T19:36:17.055Z,9.97
2022-12-18T19:38:45.734Z,11.37
2022-12-18T19:41:15.653Z,12.87
2022-12-18T19:43:44.361Z,10.57
2022-12-18T19:46:13.392Z,10.20
2022-12-18T19:48:42.227Z,10.00
2022-12-18T19:51:12.042Z,9.87
2022-12-18T19:53:40.283Z,10.30
2022-12-18T19:56:08.892Z,10.30
2022-12-18T19:58:39.440Z,10.43
2022-12-18T20:01:08.036Z,9.87
2022-12-18T20:03:37.637Z,10.70
2022-12-18T20:06:09.698Z,10.40
2022-12-18T20:08:38.025Z,10.57
2022-12-18T20:11:06.401Z,10.33
2022-12-18T20:13:34.964Z,12.47
2022-12-18T20:16:04.650Z,11.50
2022-12-18T20:18:32.961Z,11.57
2022-12-18T20:21:01.560Z,12.27
2022-12-18T20:23:32.804Z,11.30
2022-12-18T20:26:02.585Z,12.13
2022-12-18T20:28:32.396Z,12.63
2022-12-18T20:31:01.497Z,12.43
2022-12-18T20:33:31.142Z,12.03
2022-12-18T20:36:02.696Z,12.93
2022-12-18T20:38:31.663Z,12.00
2022-12-18T20:41:02.409Z,12.67
2022-12-18T20:43:30.750Z,12.17
2022-12-18T20:46:03.015Z,11.97
2022-12-18T20:48:33.486Z,12.17
2022-12-18T20:51:03.626Z,12.10
2022-12-18T20:53:32.579Z,12.17
2022-12-18T20:56:02.078Z,13.20
2022-12-18T20:58:30.353Z,13.17
2022-12-18T21:01:04.270Z,12.93
2022-12-18T21:03:34.034Z,14.93
2022-12-18T21:06:02.248Z,13.53
2022-12-18T21:08:30.472Z,15.03
2022-12-18T21:10:59.900Z,13.80
2022-12-18T21:13:52.182Z,14.50
2022-12-18T21:16:20.523Z,12.47
2022-12-18T21:18:50.129Z,13.07
2022-12-18T21:21:26.058Z,12.40
2022-12-18T21:23:54.917Z,14.40
2022-12-18T21:26:24.180Z,13.50
2022-12-18T21:28:55.198Z,14.00
2022-12-18T21:31:23.971Z,13.87
2022-12-18T21:33:59.765Z,14.10
2022-12-18T21:36:30.883Z,15.27
2022-12-18T21:38:59.941Z,14.77
2022-12-18T21:41:45.840Z,15.47
2022-12-18T21:44:15.444Z,14.93
2022-12-18T21:46:44.562Z,15.40
2022-12-18T21:49:17.267Z,15.60
2022-12-18T21:51:46.073Z,14.97
2022-12-18T21:54:14.266Z,16.10
2022-12-18T21:56:49.958Z,13.87
2022-12-18T21:59:18.660Z,14.33
2022-12-18T22:01:47.343Z,14.53
2022-12-18T22:04:17.112Z,14.33
2022-12-18T22:06:45.550Z,14.80
2022-12-18T22:09:14.666Z,15.87
2022-12-18T22:11:43.165Z,16.70
2022-12-18T22:14:11.418Z,17.53
2022-12-18T22:16:39.667Z,18.77
2022-12-18T22:19:08.003Z,19.30
2022-12-18T22:21:38.373Z,19.13
2022-12-18T22:24:07.235Z,19.47
2022-12-18T22:26:40.109Z,17.73
2022-12-18T22:29:26.760Z,16.63
2022-12-18T22:31:55.016Z,17.87
2022-12-18T22:34:23.518Z,17.80
2022-12-18T22:36:53.227Z,16.50
2022-12-18T22:39:22.787Z,19.50
2022-12-18T22:41:51.022Z,18.07
2022-12-18T22:44:19.396Z,17.73
2022-12-18T22:46:50.771Z,17.77
2022-12-18T22:49:35.201Z,16.90
2022-12-18T22:52:05.461Z,18.33
2022-12-18T22:54:33.720Z,18.60
2022-12-18T22:57:01.910Z,17.97
2022-12-18T22:59:30.163Z,17.57
2022-12-18T23:01:59.330Z,18.13
2022-12-18T23:04:30.029Z,18.00
2022-12-18T23:07:06.282Z,17.67
2022-12-18T23:09:34.849Z,17.97
2022-12-18T23:12:03.273Z,18.10
2022-12-18T23:14:31.837Z,17.60
2022-12-18T23:17:00.119Z,18.43
2022-12-18T23:19:29.033Z,17.90
2022-12-18T23:21:58.776Z,17.97
2022-12-18T23:24:28.427Z,18.90
2022-12-18T23:26:59.519Z,18.90
2022-12-18T23:29:27.772Z,18.97
2022-12-18T23:31:56.030Z,18.03
2022-12-18T23:34:24.280Z,18.07
2022-12-18T23:36:55.995Z,18.60
2022-12-18T23:39:29.898Z,17.50
2022-12-18T23:41:59.787Z,18.57
2022-12-18T23:44:28.012Z,17.37
2022-12-18T23:46:56.495Z,18.60
2022-12-18T23:49:24.825Z,17.93
2022-12-18T23:51:55.199Z,18.60
2022-12-18T23:54:31.708Z,18.03
2022-12-18T23:57:02.944Z,18.23
2022-12-18T23:59:31.164Z,19.00
